Etusivu
METAR-TAF:

METAR-TAF

Lentoasemat :

Sandnessjøen, Norja

Leveyspiiri: 65-58N, Pituuspiiri: 012-28E, korkeus merenpinnasta: 1 m

Tämänhetkinen sää

Tämä raportti tehtiin 6 tuntia ja 53 minuuttia sitten, kello 19.50 UTC
Tuuli 14 kn etelästä
Lämpötila 6°C
Kosteus 81%
Ilmanpaine 986 hPa
Näkyvyys 10 km tai enemmän
Muutamia pilviä 1000 ft:n korkeudessa
Hajanaisia pilviä 1500 ft:n korkeudessa
Hajonneita pilviä 1800 ft:n korkeudessa
heikkoa sadetta

METAR: ENST 241950Z 17014KT 9999 -RA FEW010 SCT015 BKN018 06/03 Q0986 RMK WIND 300FT 16021KT

Aika: 04:43 (02:43 UTC)


TAF: puuttuu

Säähavainnot ja -ennusteet yli 4000 lentoasemalta (METAR- ja TAF-raportit).

Käytössä olevat sääasemat on merkitty karttaan keltaisilla ja punaisilla pisteillä.

Aseta hiiri pisteen päälle nähdäksesi sääaseman nimen.

Klikkaa sitten nähdäksesi säähavainnot ja -ennusteet.

Kartan vaihtaminen: klikkaa mustalla rastilla varustettuja vihreitä pisteitä, niin voit zoomata sisään; viivalla varustettua vihreää pistettä, niin voit zoomata ulos tai vihreitä nuolia, niin pääset viereisille kartoille.


METAR-TAF: